Aviation Digital Data Service (ADDS)

Output produced by METARs form (2154 UTC 08 August 2020)
found at http://www.aviationweather.gov/metar/data/
 
METAR text: EHGG 082125Z AUTO 04003KT 010V070 9999 NSC 22/18 Q1019
Conditions at: EHGG (GRONINGEN/EELDE , NL) observed 2125 UTC 08 August 2020
Temperature: 22.0°C (72°F)
Dewpoint: 18.0°C (64°F) [RH = 78%]
Pressure (altimeter): 30.09 inches Hg (1019.0 mb)
Winds: from the NE (40 degrees) at 3 MPH (3 knots; 1.5 m/s)
Visibility: 6 or more miles (10+ km)
Ceiling: at least 12,000 feet AGL
Clouds: sky clear below 12,000 feet AGL
Weather: no significant weather observed at this time

Forecast for: EHGG (GRONINGEN/EELDE , NL)
Text: TAF EHGG 081705Z 0818/0924 02008KT CAVOK
Forecast period: 1800 UTC 08 August 2020 to 0600 UTC 09 August 2020
Forecast type: FROM: standard forecast or significant change
Winds: from the NNE (20 degrees) at 9 MPH (8 knots; 4.1 m/s)
Visibility: 6 or more miles (10+ km)
Ceiling: unknown
Clouds: missing
Weather: NSW  (no significant weather)
Text: BECMG 0906/0909 06012KT
Forecast period: 0600 UTC 09 August 2020 to 0000 UTC 10 August 2020
Forecast type: BECOMING: Conditions expected to become as follows by 0900 UTC 09 August 2020
Winds: from the ENE (60 degrees) at 14 MPH (12 knots; 6.2 m/s)
Visibility: 6 or more miles (10+ km)
Ceiling: unknown
Clouds: missing
Weather: NSW  (no significant weather)